sensor_id;sensor_type;location;lat;lon;timestamp;P1;durP1;ratioP1;P2;durP2;ratioP2
10063;SDS011;5071;52.360;13.134;2023-04-01T00:03:56;2.43;;;1.03;;
10063;SDS011;5071;52.360;13.134;2023-04-01T00:08:59;1.37;;;1.07;;
10063;SDS011;5071;52.360;13.134;2023-04-01T00:14:01;1.10;;;1.00;;
10063;SDS011;5071;52.360;13.134;2023-04-01T00:19:03;3.17;;;1.20;;
10063;SDS011;5071;52.360;13.134;2023-04-01T00:24:06;2.67;;;1.00;;
10063;SDS011;5071;52.360;13.134;2023-04-01T00:29:08;1.13;;;1.00;;
10063;SDS011;5071;52.360;13.134;2023-04-01T00:34:11;1.23;;;1.00;;
10063;SDS011;5071;52.360;13.134;2023-04-01T00:39:15;2.13;;;1.17;;
10063;SDS011;5071;52.360;13.134;2023-04-01T00:44:18;1.40;;;0.73;;
10063;SDS011;5071;52.360;13.134;2023-04-01T00:49:22;3.93;;;1.27;;
10063;SDS011;5071;52.360;13.134;2023-04-01T00:54:30;2.53;;;1.10;;
10063;SDS011;5071;52.360;13.134;2023-04-01T00:59:33;4.03;;;1.47;;
10063;SDS011;5071;52.360;13.134;2023-04-01T01:04:40;1.33;;;1.00;;
10063;SDS011;5071;52.360;13.134;2023-04-01T01:09:45;2.53;;;0.80;;
10063;SDS011;5071;52.360;13.134;2023-04-01T01:14:59;1.87;;;0.83;;
10063;SDS011;5071;52.360;13.134;2023-04-01T01:20:20;1.20;;;1.03;;
10063;SDS011;5071;52.360;13.134;2023-04-01T01:25:40;1.27;;;0.93;;
10063;SDS011;5071;52.360;13.134;2023-04-01T01:30:49;2.30;;;1.10;;
10063;SDS011;5071;52.360;13.134;2023-04-01T01:35:59;2.07;;;1.10;;
10063;SDS011;5071;52.360;13.134;2023-04-01T01:41:07;1.70;;;1.03;;
10063;SDS011;5071;52.360;13.134;2023-04-01T01:46:11;2.97;;;1.10;;
10063;SDS011;5071;52.360;13.134;2023-04-01T01:51:16;2.27;;;1.20;;
10063;SDS011;5071;52.360;13.134;2023-04-01T01:56:18;1.53;;;1.10;;
10063;SDS011;5071;52.360;13.134;2023-04-01T02:01:25;1.43;;;0.90;;
10063;SDS011;5071;52.360;13.134;2023-04-01T02:06:32;5.17;;;1.30;;
10063;SDS011;5071;52.360;13.134;2023-04-01T02:11:40;1.37;;;0.90;;
10063;SDS011;5071;52.360;13.134;2023-04-01T02:16:49;2.37;;;1.37;;
10063;SDS011;5071;52.360;13.134;2023-04-01T02:21:56;0.93;;;0.93;;
10063;SDS011;5071;52.360;13.134;2023-04-01T02:27:01;1.30;;;0.80;;
10063;SDS011;5071;52.360;13.134;2023-04-01T02:32:03;2.13;;;1.23;;
10063;SDS011;5071;52.360;13.134;2023-04-01T02:37:10;4.67;;;1.10;;
10063;SDS011;5071;52.360;13.134;2023-04-01T02:42:14;2.00;;;1.03;;
10063;SDS011;5071;52.360;13.134;2023-04-01T02:47:16;4.87;;;1.90;;
10063;SDS011;5071;52.360;13.134;2023-04-01T02:52:19;6.50;;;1.23;;
10063;SDS011;5071;52.360;13.134;2023-04-01T02:57:21;6.27;;;1.63;;
10063;SDS011;5071;52.360;13.134;2023-04-01T03:02:23;4.97;;;1.50;;
10063;SDS011;5071;52.360;13.134;2023-04-01T03:07:27;6.23;;;1.40;;
10063;SDS011;5071;52.360;13.134;2023-04-01T03:12:29;3.60;;;1.53;;
10063;SDS011;5071;52.360;13.134;2023-04-01T03:17:31;3.90;;;1.60;;
10063;SDS011;5071;52.360;13.134;2023-04-01T03:22:34;2.37;;;1.27;;
10063;SDS011;5071;52.360;13.134;2023-04-01T03:27:36;4.83;;;1.90;;
10063;SDS011;5071;52.360;13.134;2023-04-01T03:32:38;4.27;;;1.60;;
10063;SDS011;5071;52.360;13.134;2023-04-01T03:37:42;4.00;;;1.97;;
10063;SDS011;5071;52.360;13.134;2023-04-01T03:42:44;6.03;;;2.13;;
10063;SDS011;5071;52.360;13.134;2023-04-01T03:47:46;4.67;;;1.47;;
10063;SDS011;5071;52.360;13.134;2023-04-01T03:52:50;4.93;;;1.87;;
10063;SDS011;5071;52.360;13.134;2023-04-01T03:57:52;3.27;;;1.90;;
10063;SDS011;5071;52.360;13.134;2023-04-01T04:02:54;8.83;;;1.70;;
10063;SDS011;5071;52.360;13.134;2023-04-01T04:07:58;3.83;;;1.53;;
10063;SDS011;5071;52.360;13.134;2023-04-01T04:12:59;3.37;;;1.60;;
10063;SDS011;5071;52.360;13.134;2023-04-01T04:18:01;4.90;;;1.97;;
10063;SDS011;5071;52.360;13.134;2023-04-01T04:23:04;8.27;;;1.57;;
10063;SDS011;5071;52.360;13.134;2023-04-01T04:28:06;3.87;;;1.70;;
10063;SDS011;5071;52.360;13.134;2023-04-01T04:33:08;4.40;;;1.63;;
10063;SDS011;5071;52.360;13.134;2023-04-01T04:38:12;6.80;;;1.67;;
10063;SDS011;5071;52.360;13.134;2023-04-01T04:43:14;3.77;;;1.83;;
10063;SDS011;5071;52.360;13.134;2023-04-01T04:48:18;6.30;;;1.70;;
10063;SDS011;5071;52.360;13.134;2023-04-01T04:53:22;2.87;;;1.43;;
10063;SDS011;5071;52.360;13.134;2023-04-01T04:58:24;4.43;;;1.50;;
10063;SDS011;5071;52.360;13.134;2023-04-01T05:03:26;4.13;;;1.60;;
10063;SDS011;5071;52.360;13.134;2023-04-01T05:08:33;3.10;;;1.57;;
10063;SDS011;5071;52.360;13.134;2023-04-01T05:13:35;4.00;;;1.50;;
10063;SDS011;5071;52.360;13.134;2023-04-01T05:18:37;4.17;;;1.97;;
10063;SDS011;5071;52.360;13.134;2023-04-01T05:23:40;6.73;;;2.10;;
10063;SDS011;5071;52.360;13.134;2023-04-01T05:28:42;2.27;;;1.60;;
10063;SDS011;5071;52.360;13.134;2023-04-01T05:33:45;7.57;;;1.53;;
10063;SDS011;5071;52.360;13.134;2023-04-01T05:38:48;3.87;;;1.37;;
10063;SDS011;5071;52.360;13.134;2023-04-01T05:43:51;3.47;;;1.67;;
10063;SDS011;5071;52.360;13.134;2023-04-01T05:48:53;1.13;;;1.00;;
10063;SDS011;5071;52.360;13.134;2023-04-01T05:53:56;2.80;;;1.50;;
10063;SDS011;5071;52.360;13.134;2023-04-01T05:58:58;3.40;;;1.60;;
10063;SDS011;5071;52.360;13.134;2023-04-01T06:04:00;3.60;;;1.90;;
10063;SDS011;5071;52.360;13.134;2023-04-01T06:09:07;6.53;;;1.60;;
10063;SDS011;5071;52.360;13.134;2023-04-01T06:14:17;4.07;;;1.50;;
10063;SDS011;5071;52.360;13.134;2023-04-01T06:19:31;3.73;;;1.50;;
10063;SDS011;5071;52.360;13.134;2023-04-01T06:24:41;2.57;;;1.83;;
10063;SDS011;5071;52.360;13.134;2023-04-01T06:30:00;3.97;;;1.70;;
10063;SDS011;5071;52.360;13.134;2023-04-01T06:35:17;2.50;;;1.60;;
10063;SDS011;5071;52.360;13.134;2023-04-01T06:40:48;2.53;;;1.50;;
10063;SDS011;5071;52.360;13.134;2023-04-01T06:45:58;2.50;;;1.50;;
10063;SDS011;5071;52.360;13.134;2023-04-01T06:51:08;3.37;;;1.60;;
10063;SDS011;5071;52.360;13.134;2023-04-01T06:56:20;8.57;;;1.60;;
10063;SDS011;5071;52.360;13.134;2023-04-01T07:01:26;2.20;;;1.30;;
10063;SDS011;5071;52.360;13.134;2023-04-01T07:06:35;1.73;;;1.30;;
10063;SDS011;5071;52.360;13.134;2023-04-01T07:11:40;4.73;;;1.20;;
10063;SDS011;5071;52.360;13.134;2023-04-01T07:16:43;2.80;;;1.20;;
10063;SDS011;5071;52.360;13.134;2023-04-01T07:21:51;4.77;;;1.10;;
10063;SDS011;5071;52.360;13.134;2023-04-01T07:26:58;4.53;;;1.47;;
10063;SDS011;5071;52.360;13.134;2023-04-01T07:32:12;4.80;;;1.37;;
10063;SDS011;5071;52.360;13.134;2023-04-01T07:37:22;2.80;;;1.00;;
10063;SDS011;5071;52.360;13.134;2023-04-01T07:42:33;2.03;;;1.33;;
10063;SDS011;5071;52.360;13.134;2023-04-01T07:47:49;3.67;;;1.40;;
10063;SDS011;5071;52.360;13.134;2023-04-01T07:53:03;2.27;;;1.07;;
10063;SDS011;5071;52.360;13.134;2023-04-01T07:58:16;3.13;;;1.20;;
10063;SDS011;5071;52.360;13.134;2023-04-01T08:03:29;5.67;;;1.43;;
10063;SDS011;5071;52.360;13.134;2023-04-01T08:08:43;2.20;;;1.00;;
10063;SDS011;5071;52.360;13.134;2023-04-01T08:13:56;2.07;;;1.03;;
10063;SDS011;5071;52.360;13.134;2023-04-01T08:19:09;3.47;;;1.10;;
10063;SDS011;5071;52.360;13.134;2023-04-01T08:24:25;3.53;;;1.03;;
10063;SDS011;5071;52.360;13.134;2023-04-01T08:29:50;4.50;;;1.33;;
10063;SDS011;5071;52.360;13.134;2023-04-01T08:35:02;2.70;;;1.30;;
10063;SDS011;5071;52.360;13.134;2023-04-01T08:40:21;4.57;;;1.10;;
10063;SDS011;5071;52.360;13.134;2023-04-01T08:45:46;1.87;;;0.80;;
10063;SDS011;5071;52.360;13.134;2023-04-01T08:51:09;1.47;;;1.00;;
10063;SDS011;5071;52.360;13.134;2023-04-01T08:56:33;1.57;;;0.90;;
10063;SDS011;5071;52.360;13.134;2023-04-01T09:01:54;2.40;;;1.00;;
10063;SDS011;5071;52.360;13.134;2023-04-01T09:07:20;3.90;;;1.03;;
10063;SDS011;5071;52.360;13.134;2023-04-01T09:12:38;1.90;;;1.00;;
10063;SDS011;5071;52.360;13.134;2023-04-01T09:18:03;1.17;;;1.00;;
10063;SDS011;5071;52.360;13.134;2023-04-01T09:23:22;1.73;;;0.90;;
10063;SDS011;5071;52.360;13.134;2023-04-01T09:28:39;1.23;;;0.90;;
10063;SDS011;5071;52.360;13.134;2023-04-01T09:33:52;2.70;;;0.87;;
10063;SDS011;5071;52.360;13.134;2023-04-01T09:39:34;1.33;;;0.60;;
10063;SDS011;5071;52.360;13.134;2023-04-01T09:44:39;1.50;;;0.87;;
10063;SDS011;5071;52.360;13.134;2023-04-01T09:50:03;1.13;;;0.70;;
10063;SDS011;5071;52.360;13.134;2023-04-01T09:55:40;1.67;;;1.10;;
10063;SDS011;5071;52.360;13.134;2023-04-01T10:12:46;0.93;;;0.77;;
10063;SDS011;5071;52.360;13.134;2023-04-01T10:23:54;3.70;;;0.83;;
10063;SDS011;5071;52.360;13.134;2023-04-01T10:29:26;0.90;;;0.90;;
10063;SDS011;5071;52.360;13.134;2023-04-01T10:40:32;2.40;;;1.77;;
10063;SDS011;5071;52.360;13.134;2023-04-01T10:51:40;6.67;;;1.93;;
10063;SDS011;5071;52.360;13.134;2023-04-01T10:57:07;3.90;;;2.57;;
10063;SDS011;5071;52.360;13.134;2023-04-01T11:08:18;3.70;;;2.57;;
10063;SDS011;5071;52.360;13.134;2023-04-01T11:25:00;4.70;;;3.60;;
10063;SDS011;5071;52.360;13.134;2023-04-01T11:30:26;4.83;;;4.03;;
10063;SDS011;5071;52.360;13.134;2023-04-01T11:41:10;6.00;;;4.40;;
10063;SDS011;5071;52.360;13.134;2023-04-01T11:46:25;7.93;;;4.27;;
10063;SDS011;5071;52.360;13.134;2023-04-01T11:51:46;5.80;;;4.47;;
10063;SDS011;5071;52.360;13.134;2023-04-01T11:57:01;4.93;;;3.77;;
10063;SDS011;5071;52.360;13.134;2023-04-01T12:02:16;4.10;;;3.70;;
10063;SDS011;5071;52.360;13.134;2023-04-01T12:07:30;5.27;;;3.70;;
10063;SDS011;5071;52.360;13.134;2023-04-01T12:12:48;4.80;;;3.60;;
10063;SDS011;5071;52.360;13.134;2023-04-01T12:18:04;4.97;;;3.93;;
10063;SDS011;5071;52.360;13.134;2023-04-01T12:23:18;3.30;;;2.90;;
10063;SDS011;5071;52.360;13.134;2023-04-01T12:28:42;2.67;;;2.20;;
10063;SDS011;5071;52.360;13.134;2023-04-01T12:34:00;3.03;;;2.20;;
10063;SDS011;5071;52.360;13.134;2023-04-01T12:39:29;2.77;;;2.20;;
10063;SDS011;5071;52.360;13.134;2023-04-01T12:50:19;2.23;;;2.03;;
10063;SDS011;5071;52.360;13.134;2023-04-01T12:55:37;2.43;;;2.00;;
10063;SDS011;5071;52.360;13.134;2023-04-01T13:00:52;2.10;;;1.90;;
10063;SDS011;5071;52.360;13.134;2023-04-01T13:06:20;1.87;;;1.70;;
10063;SDS011;5071;52.360;13.134;2023-04-01T13:11:40;2.47;;;1.97;;
10063;SDS011;5071;52.360;13.134;2023-04-01T13:16:55;2.33;;;2.07;;
10063;SDS011;5071;52.360;13.134;2023-04-01T13:22:04;3.73;;;2.50;;
10063;SDS011;5071;52.360;13.134;2023-04-01T13:27:14;4.03;;;2.50;;
10063;SDS011;5071;52.360;13.134;2023-04-01T13:32:24;3.67;;;2.57;;
10063;SDS011;5071;52.360;13.134;2023-04-01T13:37:57;4.50;;;3.53;;
10063;SDS011;5071;52.360;13.134;2023-04-01T13:43:10;4.70;;;3.57;;
10063;SDS011;5071;52.360;13.134;2023-04-01T13:54:04;4.70;;;4.17;;
10063;SDS011;5071;52.360;13.134;2023-04-01T13:59:40;6.33;;;3.97;;
10063;SDS011;5071;52.360;13.134;2023-04-01T14:05:00;5.03;;;3.53;;
10063;SDS011;5071;52.360;13.134;2023-04-01T14:10:18;4.33;;;3.83;;
10063;SDS011;5071;52.360;13.134;2023-04-01T14:15:34;8.70;;;5.87;;
10063;SDS011;5071;52.360;13.134;2023-04-01T14:20:46;6.20;;;4.37;;
10063;SDS011;5071;52.360;13.134;2023-04-01T14:31:27;8.70;;;6.07;;
10063;SDS011;5071;52.360;13.134;2023-04-01T14:36:45;7.73;;;6.37;;
10063;SDS011;5071;52.360;13.134;2023-04-01T14:42:03;9.27;;;7.80;;
10063;SDS011;5071;52.360;13.134;2023-04-01T14:47:28;9.53;;;6.80;;
10063;SDS011;5071;52.360;13.134;2023-04-01T14:52:46;9.10;;;6.60;;
10063;SDS011;5071;52.360;13.134;2023-04-01T14:58:04;8.37;;;6.47;;
10063;SDS011;5071;52.360;13.134;2023-04-01T15:03:12;8.80;;;6.40;;
10063;SDS011;5071;52.360;13.134;2023-04-01T15:08:28;9.17;;;6.43;;
10063;SDS011;5071;52.360;13.134;2023-04-01T15:13:41;8.20;;;6.30;;
10063;SDS011;5071;52.360;13.134;2023-04-01T15:18:57;6.80;;;5.73;;
10063;SDS011;5071;52.360;13.134;2023-04-01T15:24:10;6.93;;;5.90;;
10063;SDS011;5071;52.360;13.134;2023-04-01T15:34:46;7.97;;;5.90;;
10063;SDS011;5071;52.360;13.134;2023-04-01T15:39:57;8.00;;;6.43;;
10063;SDS011;5071;52.360;13.134;2023-04-01T15:45:07;7.47;;;6.20;;
10063;SDS011;5071;52.360;13.134;2023-04-01T15:50:25;9.23;;;6.37;;
10063;SDS011;5071;52.360;13.134;2023-04-01T15:55:38;8.40;;;6.13;;
10063;SDS011;5071;52.360;13.134;2023-04-01T16:00:44;7.20;;;5.33;;
10063;SDS011;5071;52.360;13.134;2023-04-01T16:06:00;6.70;;;5.53;;
10063;SDS011;5071;52.360;13.134;2023-04-01T16:11:15;8.60;;;5.93;;
10063;SDS011;5071;52.360;13.134;2023-04-01T16:16:26;8.27;;;6.10;;
10063;SDS011;5071;52.360;13.134;2023-04-01T16:21:37;6.60;;;4.87;;
10063;SDS011;5071;52.360;13.134;2023-04-01T16:26:50;6.30;;;5.23;;
10063;SDS011;5071;52.360;13.134;2023-04-01T16:31:59;6.63;;;4.93;;
10063;SDS011;5071;52.360;13.134;2023-04-01T16:37:12;6.53;;;4.80;;
10063;SDS011;5071;52.360;13.134;2023-04-01T16:42:21;8.40;;;4.30;;
10063;SDS011;5071;52.360;13.134;2023-04-01T16:47:34;5.00;;;4.47;;
10063;SDS011;5071;52.360;13.134;2023-04-01T16:52:44;5.70;;;4.90;;
10063;SDS011;5071;52.360;13.134;2023-04-01T16:58:00;6.43;;;5.37;;
10063;SDS011;5071;52.360;13.134;2023-04-01T17:03:04;7.37;;;5.43;;
10063;SDS011;5071;52.360;13.134;2023-04-01T17:08:17;7.80;;;5.60;;
10063;SDS011;5071;52.360;13.134;2023-04-01T17:18:53;7.17;;;5.23;;
10063;SDS011;5071;52.360;13.134;2023-04-01T17:24:05;8.20;;;5.83;;
10063;SDS011;5071;52.360;13.134;2023-04-01T17:29:18;7.93;;;5.67;;
10063;SDS011;5071;52.360;13.134;2023-04-01T17:34:34;6.97;;;5.63;;
10063;SDS011;5071;52.360;13.134;2023-04-01T17:39:46;7.03;;;5.17;;
10063;SDS011;5071;52.360;13.134;2023-04-01T17:44:58;9.73;;;5.70;;
10063;SDS011;5071;52.360;13.134;2023-04-01T17:50:09;7.90;;;5.97;;
10063;SDS011;5071;52.360;13.134;2023-04-01T17:55:26;6.63;;;5.23;;
10063;SDS011;5071;52.360;13.134;2023-04-01T18:00:49;7.83;;;5.50;;
10063;SDS011;5071;52.360;13.134;2023-04-01T18:06:01;6.27;;;5.37;;
10063;SDS011;5071;52.360;13.134;2023-04-01T18:11:12;6.73;;;5.17;;
10063;SDS011;5071;52.360;13.134;2023-04-01T18:21:53;9.37;;;6.80;;
10063;SDS011;5071;52.360;13.134;2023-04-01T18:27:02;9.03;;;5.43;;
10063;SDS011;5071;52.360;13.134;2023-04-01T18:32:14;8.03;;;6.23;;
10063;SDS011;5071;52.360;13.134;2023-04-01T18:37:25;6.53;;;5.47;;
10063;SDS011;5071;52.360;13.134;2023-04-01T18:42:33;6.07;;;4.90;;
10063;SDS011;5071;52.360;13.134;2023-04-01T18:47:54;6.37;;;5.03;;
10063;SDS011;5071;52.360;13.134;2023-04-01T18:53:08;6.50;;;5.00;;
10063;SDS011;5071;52.360;13.134;2023-04-01T18:58:21;6.73;;;4.47;;
10063;SDS011;5071;52.360;13.134;2023-04-01T19:03:34;6.03;;;4.23;;
10063;SDS011;5071;52.360;13.134;2023-04-01T19:08:42;7.57;;;4.67;;
10063;SDS011;5071;52.360;13.134;2023-04-01T19:13:48;5.40;;;4.10;;
10063;SDS011;5071;52.360;13.134;2023-04-01T19:19:03;6.83;;;4.20;;
10063;SDS011;5071;52.360;13.134;2023-04-01T19:24:23;5.77;;;4.20;;
10063;SDS011;5071;52.360;13.134;2023-04-01T19:29:43;5.27;;;3.73;;
10063;SDS011;5071;52.360;13.134;2023-04-01T19:35:03;4.10;;;3.50;;
10063;SDS011;5071;52.360;13.134;2023-04-01T19:40:25;7.03;;;3.77;;
10063;SDS011;5071;52.360;13.134;2023-04-01T19:45:39;4.97;;;3.87;;
10063;SDS011;5071;52.360;13.134;2023-04-01T19:50:46;6.73;;;4.17;;
10063;SDS011;5071;52.360;13.134;2023-04-01T19:55:56;10.10;;;5.03;;
10063;SDS011;5071;52.360;13.134;2023-04-01T20:01:05;8.47;;;4.67;;
10063;SDS011;5071;52.360;13.134;2023-04-01T20:06:16;5.50;;;4.60;;
10063;SDS011;5071;52.360;13.134;2023-04-01T20:11:27;4.70;;;4.00;;
10063;SDS011;5071;52.360;13.134;2023-04-01T20:16:49;5.33;;;3.80;;
10063;SDS011;5071;52.360;13.134;2023-04-01T20:21:57;7.13;;;5.17;;
10063;SDS011;5071;52.360;13.134;2023-04-01T20:27:02;10.07;;;5.20;;
10063;SDS011;5071;52.360;13.134;2023-04-01T20:32:12;8.53;;;5.53;;
10063;SDS011;5071;52.360;13.134;2023-04-01T20:37:29;6.90;;;4.13;;
10063;SDS011;5071;52.360;13.134;2023-04-01T20:42:44;8.30;;;4.40;;
10063;SDS011;5071;52.360;13.134;2023-04-01T20:48:01;6.00;;;4.57;;
10063;SDS011;5071;52.360;13.134;2023-04-01T20:53:22;7.23;;;5.10;;
10063;SDS011;5071;52.360;13.134;2023-04-01T20:58:32;6.27;;;4.57;;
10063;SDS011;5071;52.360;13.134;2023-04-01T21:03:42;6.13;;;4.57;;
10063;SDS011;5071;52.360;13.134;2023-04-01T21:08:57;6.60;;;4.50;;
10063;SDS011;5071;52.360;13.134;2023-04-01T21:14:28;8.90;;;4.83;;
10063;SDS011;5071;52.360;13.134;2023-04-01T21:19:49;8.10;;;5.17;;
10063;SDS011;5071;52.360;13.134;2023-04-01T21:25:14;7.97;;;4.67;;
10063;SDS011;5071;52.360;13.134;2023-04-01T21:30:28;5.60;;;4.00;;
10063;SDS011;5071;52.360;13.134;2023-04-01T21:35:42;5.73;;;3.47;;
10063;SDS011;5071;52.360;13.134;2023-04-01T21:46:43;6.10;;;3.40;;
10063;SDS011;5071;52.360;13.134;2023-04-01T21:57:56;4.27;;;3.13;;
10063;SDS011;5071;52.360;13.134;2023-04-01T22:03:32;5.47;;;3.43;;
10063;SDS011;5071;52.360;13.134;2023-04-01T22:08:54;6.07;;;2.83;;
10063;SDS011;5071;52.360;13.134;2023-04-01T22:14:07;3.80;;;2.83;;
10063;SDS011;5071;52.360;13.134;2023-04-01T22:19:15;4.00;;;3.00;;
10063;SDS011;5071;52.360;13.134;2023-04-01T22:24:23;8.40;;;3.17;;
10063;SDS011;5071;52.360;13.134;2023-04-01T22:29:35;6.63;;;3.23;;
10063;SDS011;5071;52.360;13.134;2023-04-01T22:34:44;4.03;;;3.00;;
10063;SDS011;5071;52.360;13.134;2023-04-01T22:39:55;3.80;;;2.60;;
10063;SDS011;5071;52.360;13.134;2023-04-01T22:45:17;5.43;;;2.97;;
10063;SDS011;5071;52.360;13.134;2023-04-01T22:50:32;3.50;;;2.60;;
10063;SDS011;5071;52.360;13.134;2023-04-01T22:55:38;3.33;;;2.67;;
10063;SDS011;5071;52.360;13.134;2023-04-01T23:00:56;7.07;;;3.37;;
10063;SDS011;5071;52.360;13.134;2023-04-01T23:06:02;3.77;;;2.67;;
10063;SDS011;5071;52.360;13.134;2023-04-01T23:11:06;5.23;;;3.17;;
10063;SDS011;5071;52.360;13.134;2023-04-01T23:16:11;3.53;;;2.73;;
10063;SDS011;5071;52.360;13.134;2023-04-01T23:21:15;3.43;;;2.50;;
10063;SDS011;5071;52.360;13.134;2023-04-01T23:26:28;3.00;;;2.10;;
10063;SDS011;5071;52.360;13.134;2023-04-01T23:31:36;4.17;;;2.63;;
10063;SDS011;5071;52.360;13.134;2023-04-01T23:36:41;3.00;;;2.33;;
10063;SDS011;5071;52.360;13.134;2023-04-01T23:41:45;3.37;;;2.53;;
10063;SDS011;5071;52.360;13.134;2023-04-01T23:46:48;3.90;;;2.97;;
10063;SDS011;5071;52.360;13.134;2023-04-01T23:51:53;4.03;;;3.07;;
10063;SDS011;5071;52.360;13.134;2023-04-01T23:56:58;4.33;;;3.20;;
